Station Historical Data
Daily Summary for June 2, 2012 Units:  Both    English   Metric
« Previous Day
Next Day »
Daily Weekly Monthly Yearly Custom
  High: Low: Average:
Temperature: 74.9 °F /  23.8 °C 47.8 °F /  8.8 °C 62.7 °F /  17.1 °C
Dew Point: 60.3 °F /  15.7 °C 46.7 °F /  8.2 °C 54.2 °F /  12.3 °C
Humidity: 96% 53% 76%
Wind Speed: 12.0mph /  19.3km/h - 2.3mph /  3.7km/h
Wind Gust: 19.0mph /  30.6km/h - -
Wind- - SW
Pressure: 30.01 in /  1016.1 hPa 29.87 in /  1011.4 hPa -
Precipitation: 0.00 in /  0 mm    
Historical Graphs
 
 
Tabular Data for June 2, 2012
Time Temperature Dew Point Pressure Wind Wind Speed Wind Gust Humidity Rainfall Rate (Hourly) Conditions
00:00 54.3 °F /  12.4 °C 52.9 °F /  11.6 °C 29.92in /  1013.1hPa Calm     95% 0.00in /  0mm
00:02 54.5 °F /  12.5 °C 53.1 °F /  11.7 °C 29.92in /  1013.1hPa Calm     95% 0.00in /  0mm
00:07 54.6 °F /  12.6 °C 53.2 °F /  11.8 °C 29.92in /  1013.1hPa Calm     95% 0.00in /  0mm
00:12 54.7 °F /  12.6 °C 53.0 °F /  11.7 °C 29.92in /  1013.1hPa Calm     94% 0.00in /  0mm
00:17 54.8 °F /  12.7 °C 53.1 °F /  11.7 °C 29.92in /  1013.1hPa Calm     94% 0.00in /  0mm
00:22 55.0 °F /  12.8 °C 53.3 °F /  11.8 °C 29.92in /  1013.1hPa Calm     94% 0.00in /  0mm
00:27 54.8 °F /  12.7 °C 53.1 °F /  11.7 °C 29.92in /  1013.1hPa Calm     94% 0.00in /  0mm
00:32 54.7 °F /  12.6 °C 53.0 °F /  11.7 °C 29.93in /  1013.4hPa Calm     94% 0.00in /  0mm
00:37 54.9 °F /  12.7 °C 53.2 °F /  11.8 °C 29.93in /  1013.4hPa Calm     94% 0.00in /  0mm
00:42 55.2 °F /  12.9 °C 53.5 °F /  11.9 °C 29.92in /  1013.1hPa Calm     94% 0.00in /  0mm
00:47 55.3 °F /  12.9 °C 53.3 °F /  11.8 °C 29.92in /  1013.1hPa Calm     93% 0.00in /  0mm
00:52 55.2 °F /  12.9 °C 53.2 °F /  11.8 °C 29.92in /  1013.1hPa Calm     93% 0.00in /  0mm
00:57 55.0 °F /  12.8 °C 53.0 °F /  11.7 °C 29.92in /  1013.1hPa Calm     93% 0.00in /  0mm
01:02 55.0 °F /  12.8 °C 53.0 °F /  11.7 °C 29.92in /  1013.1hPa NE 1.0mph /  1.6km/h 2.0mph /  3.2km/h 93% 0.00in /  0mm
01:07 55.0 °F /  12.8 °C 53.0 °F /  11.7 °C 29.92in /  1013.1hPa North 1.0mph /  1.6km/h 1.0mph /  1.6km/h 93% 0.00in /  0mm
01:12 54.9 °F /  12.7 °C 52.9 °F /  11.6 °C 29.92in /  1013.1hPa Calm   1.0mph /  1.6km/h 93% 0.00in /  0mm
01:17 54.7 °F /  12.6 °C 52.7 °F /  11.5 °C 29.92in /  1013.1hPa Calm     93% 0.00in /  0mm
01:22 54.6 °F /  12.6 °C 52.6 °F /  11.4 °C 29.92in /  1013.1hPa NNE 1.0mph /  1.6km/h 2.0mph /  3.2km/h 93% 0.00in /  0mm
01:27 54.5 °F /  12.5 °C 52.5 °F /  11.4 °C 29.92in /  1013.1hPa NNE 1.0mph /  1.6km/h 1.0mph /  1.6km/h 93% 0.00in /  0mm
01:32 54.5 °F /  12.5 °C 52.5 °F /  11.4 °C 29.91in /  1012.8hPa NE 2.0mph /  3.2km/h 2.0mph /  3.2km/h 93% 0.00in /  0mm
01:37 54.5 °F /  12.5 °C 52.5 °F /  11.4 °C 29.91in /  1012.8hPa NNE 1.0mph /  1.6km/h 2.0mph /  3.2km/h 93% 0.00in /  0mm
01:42 54.5 °F /  12.5 °C 52.5 °F /  11.4 °C 29.91in /  1012.8hPa NE 1.0mph /  1.6km/h 2.0mph /  3.2km/h 93% 0.00in /  0mm
01:47 54.5 °F /  12.5 °C 52.2 °F /  11.2 °C 29.91in /  1012.8hPa Calm   1.0mph /  1.6km/h 92% 0.00in /  0mm
01:52 54.5 °F /  12.5 °C 52.2 °F /  11.2 °C 29.91in /  1012.8hPa Calm   1.0mph /  1.6km/h 92% 0.00in /  0mm
01:57 54.2 °F /  12.3 °C 51.9 °F /  11.1 °C 29.90in /  1012.4hPa ESE 1.0mph /  1.6km/h 1.0mph /  1.6km/h 92% 0.00in /  0mm
02:02 54.1 °F /  12.3 °C 52.1 °F /  11.2 °C 29.90in /  1012.4hPa Calm   1.0mph /  1.6km/h 93% 0.00in /  0mm
02:07 54.1 °F /  12.3 °C 52.1 °F /  11.2 °C 29.90in /  1012.4hPa ENE 1.0mph /  1.6km/h 2.0mph /  3.2km/h 93% 0.00in /  0mm
02:12 54.3 °F /  12.4 °C 52.0 °F /  11.1 °C 29.90in /  1012.4hPa Calm   1.0mph /  1.6km/h 92% 0.00in /  0mm
02:18 54.2 °F /  12.3 °C 51.9 °F /  11.1 °C 29.91in /  1012.8hPa Calm     92% 0.00in /  0mm
02:23 54.0 °F /  12.2 °C 51.7 °F /  10.9 °C 29.91in /  1012.8hPa Calm     92% 0.00in /  0mm
02:28 53.5 °F /  11.9 °C 51.2 °F /  10.7 °C 29.91in /  1012.8hPa Calm     92% 0.00in /  0mm
02:33 53.0 °F /  11.7 °C 51.0 °F /  10.6 °C 29.91in /  1012.8hPa Calm     93% 0.00in /  0mm
02:38 52.7 °F /  11.5 °C 50.7 °F /  10.4 °C 29.91in /  1012.8hPa Calm     93% 0.00in /  0mm
02:43 52.3 °F /  11.3 °C 50.6 °F /  10.3 °C 29.91in /  1012.8hPa Calm     94% 0.00in /  0mm
02:48 52.2 °F /  11.2 °C 50.5 °F /  10.3 °C 29.91in /  1012.8hPa Calm     94% 0.00in /  0mm
02:53 52.1 °F /  11.2 °C 50.4 °F /  10.2 °C 29.91in /  1012.8hPa Calm     94% 0.00in /  0mm
02:58 51.8 °F /  11 °C 50.1 °F /  10.1 °C 29.91in /  1012.8hPa Calm     94% 0.00in /  0mm
03:03 51.7 °F /  10.9 °C 50.0 °F /  10 °C 29.91in /  1012.8hPa Calm     94% 0.00in /  0mm
03:08 51.4 °F /  10.8 °C 49.7 °F /  9.8 °C 29.91in /  1012.8hPa Calm     94% 0.00in /  0mm
03:13 51.5 °F /  10.8 °C 50.1 °F /  10.1 °C 29.91in /  1012.8hPa Calm     95% 0.00in /  0mm
03:18 51.4 °F /  10.8 °C 50.0 °F /  10 °C 29.91in /  1012.8hPa Calm     95% 0.00in /  0mm
03:23 51.2 °F /  10.7 °C 49.8 °F /  9.9 °C 29.92in /  1013.1hPa Calm     95% 0.00in /  0mm
03:28 51.0 °F /  10.6 °C 49.6 °F /  9.8 °C 29.92in /  1013.1hPa Calm     95% 0.00in /  0mm
03:33 51.0 °F /  10.6 °C 49.6 °F /  9.8 °C 29.92in /  1013.1hPa Calm     95% 0.00in /  0mm
03:38 51.0 °F /  10.6 °C 49.6 °F /  9.8 °C 29.92in /  1013.1hPa Calm     95% 0.00in /  0mm
03:43 50.9 °F /  10.5 °C 49.5 °F /  9.7 °C 29.92in /  1013.1hPa Calm     95% 0.00in /  0mm
03:48 50.9 °F /  10.5 °C 49.5 °F /  9.7 °C 29.92in /  1013.1hPa Calm     95% 0.00in /  0mm
03:53 50.8 °F /  10.4 °C 49.4 °F /  9.7 °C 29.91in /  1012.8hPa Calm     95% 0.00in /  0mm
03:58 50.6 °F /  10.3 °C 49.2 °F /  9.6 °C 29.91in /  1012.8hPa Calm     95% 0.00in /  0mm
04:03 50.3 °F /  10.2 °C 48.9 °F /  9.4 °C 29.91in /  1012.8hPa Calm     95% 0.00in /  0mm
04:08 50.0 °F /  10 °C 48.6 °F /  9.2 °C 29.91in /  1012.8hPa Calm     95% 0.00in /  0mm
04:13 49.5 °F /  9.7 °C 48.1 °F /  8.9 °C 29.91in /  1012.8hPa Calm     95% 0.00in /  0mm
04:18 49.2 °F /  9.6 °C 47.8 °F /  8.8 °C 29.91in /  1012.8hPa Calm     95% 0.00in /  0mm
04:23 49.2 °F /  9.6 °C 47.8 °F /  8.8 °C 29.91in /  1012.8hPa Calm     95% 0.00in /  0mm
04:28 49.5 °F /  9.7 °C 48.4 °F /  9.1 °C 29.91in /  1012.8hPa Calm     96% 0.00in /  0mm
04:33 49.9 °F /  9.9 °C 48.8 °F /  9.3 °C 29.91in /  1012.8hPa Calm     96% 0.00in /  0mm
04:38 50.2 °F /  10.1 °C 49.1 °F /  9.5 °C 29.91in /  1012.8hPa Calm     96% 0.00in /  0mm
04:43 50.4 °F /  10.2 °C 49.3 °F /  9.6 °C 29.90in /  1012.4hPa Calm     96% 0.00in /  0mm
04:48 50.3 °F /  10.2 °C 49.2 °F /  9.6 °C 29.90in /  1012.4hPa Calm     96% 0.00in /  0mm
04:53 50.1 °F /  10.1 °C 49.0 °F /  9.4 °C 29.91in /  1012.8hPa Calm     96% 0.00in /  0mm
04:59 50.0 °F /  10 °C 48.9 °F /  9.4 °C 29.91in /  1012.8hPa Calm     96% 0.00in /  0mm
05:04 50.0 °F /  10 °C 48.9 °F /  9.4 °C 29.90in /  1012.4hPa Calm     96% 0.00in /  0mm
05:09 49.8 °F /  9.9 °C 48.7 °F /  9.3 °C 29.90in /  1012.4hPa Calm     96% 0.00in /  0mm
05:14 49.6 °F /  9.8 °C 48.5 °F /  9.2 °C 29.91in /  1012.8hPa Calm     96% 0.00in /  0mm
05:19 49.4 °F /  9.7 °C 48.3 °F /  9.1 °C 29.91in /  1012.8hPa Calm     96% 0.00in /  0mm
05:24 49.4 °F /  9.7 °C 48.3 °F /  9.1 °C 29.91in /  1012.8hPa Calm     96% 0.00in /  0mm
05:29 49.6 °F /  9.8 °C 48.5 °F /  9.2 °C 29.91in /  1012.8hPa Calm     96% 0.00in /  0mm
05:34 49.9 °F /  9.9 °C 48.8 °F /  9.3 °C 29.91in /  1012.8hPa Calm     96% 0.00in /  0mm
05:39 50.1 °F /  10.1 °C 49.0 °F /  9.4 °C 29.91in /  1012.8hPa Calm     96% 0.00in /  0mm
05:44 50.0 °F /  10 °C 48.9 °F /  9.4 °C 29.91in /  1012.8hPa Calm     96% 0.00in /  0mm
05:49 49.9 °F /  9.9 °C 48.8 °F /  9.3 °C 29.91in /  1012.8hPa Calm     96% 0.00in /  0mm
05:54 49.5 °F /  9.7 °C 48.4 °F /  9.1 °C 29.92in /  1013.1hPa Calm     96% 0.00in /  0mm
05:59 49.1 °F /  9.5 °C 48.0 °F /  8.9 °C 29.92in /  1013.1hPa Calm     96% 0.00in /  0mm
06:04 48.6 °F /  9.2 °C 47.5 °F /  8.6 °C 29.92in /  1013.1hPa Calm     96% 0.00in /  0mm
06:09 48.1 °F /  8.9 °C 47.0 °F /  8.3 °C 29.92in /  1013.1hPa Calm     96% 0.00in /  0mm
06:14 47.8 °F /  8.8 °C 46.7 °F /  8.2 °C 29.93in /  1013.4hPa Calm     96% 0.00in /  0mm
06:19 48.5 °F /  9.2 °C 47.4 °F /  8.6 °C 29.93in /  1013.4hPa Calm     96% 0.00in /  0mm
06:24 48.6 °F /  9.2 °C 47.5 °F /  8.6 °C 29.94in /  1013.8hPa Calm     96% 0.00in /  0mm
06:29 48.7 °F /  9.3 °C 47.6 °F /  8.7 °C 29.94in /  1013.8hPa Calm     96% 0.00in /  0mm
06:34 48.5 °F /  9.2 °C 47.4 °F /  8.6 °C 29.94in /  1013.8hPa Calm     96% 0.00in /  0mm
06:39 48.8 °F /  9.3 °C 47.7 °F /  8.7 °C 29.94in /  1013.8hPa Calm     96% 0.00in /  0mm
06:44 48.8 °F /  9.3 °C 47.7 °F /  8.7 °C 29.94in /  1013.8hPa Calm     96% 0.00in /  0mm
06:49 48.9 °F /  9.4 °C 47.8 °F /  8.8 °C 29.95in /  1014.1hPa Calm     96% 0.00in /  0mm
06:54 48.7 °F /  9.3 °C 47.6 °F /  8.7 °C 29.95in /  1014.1hPa Calm     96% 0.00in /  0mm
06:59 48.7 °F /  9.3 °C 47.6 °F /  8.7 °C 29.95in /  1014.1hPa Calm     96% 0.00in /  0mm
07:04 48.8 °F /  9.3 °C 47.7 °F /  8.7 °C 29.95in /  1014.1hPa Calm     96% 0.00in /  0mm
07:10 49.3 °F /  9.6 °C 48.2 °F /  9 °C 29.95in /  1014.1hPa Calm     96% 0.00in /  0mm
07:15 49.9 °F /  9.9 °C 48.8 °F /  9.3 °C 29.96in /  1014.4hPa Calm     96% 0.00in /  0mm
07:20 50.3 °F /  10.2 °C 49.2 °F /  9.6 °C 29.96in /  1014.4hPa Calm     96% 0.00in /  0mm
07:25 50.6 °F /  10.3 °C 49.5 °F /  9.7 °C 29.96in /  1014.4hPa Calm     96% 0.00in /  0mm
07:30 50.8 °F /  10.4 °C 49.7 °F /  9.8 °C 29.97in /  1014.8hPa Calm     96% 0.00in /  0mm
07:35 51.3 °F /  10.7 °C 50.2 °F /  10.1 °C 29.97in /  1014.8hPa Calm     96% 0.00in /  0mm
07:40 51.8 °F /  11 °C 50.7 °F /  10.4 °C 29.97in /  1014.8hPa Calm     96% 0.00in /  0mm
07:45 52.1 °F /  11.2 °C 51.0 °F /  10.6 °C 29.97in /  1014.8hPa Calm     96% 0.00in /  0mm
07:50 52.5 °F /  11.4 °C 51.1 °F /  10.6 °C 29.97in /  1014.8hPa Calm     95% 0.00in /  0mm
07:55 53.4 °F /  11.9 °C 52.0 °F /  11.1 °C 29.97in /  1014.8hPa Calm     95% 0.00in /  0mm
08:00 54.2 °F /  12.3 °C 52.8 °F /  11.6 °C 29.98in /  1015.1hPa Calm     95% 0.00in /  0mm
08:05 54.7 °F /  12.6 °C 53.3 °F /  11.8 °C 29.98in /  1015.1hPa SW 2.0mph /  3.2km/h 2.0mph /  3.2km/h 95% 0.00in /  0mm
08:10 54.8 °F /  12.7 °C 53.4 °F /  11.9 °C 29.98in /  1015.1hPa SW 1.0mph /  1.6km/h 3.0mph /  4.8km/h 95% 0.00in /  0mm
08:15 54.9 °F /  12.7 °C 53.2 °F /  11.8 °C 29.98in /  1015.1hPa SW 1.0mph /  1.6km/h 2.0mph /  3.2km/h 94% 0.00in /  0mm
08:20 55.3 °F /  12.9 °C 53.3 °F /  11.8 °C 29.98in /  1015.1hPa SW 2.0mph /  3.2km/h 2.0mph /  3.2km/h 93% 0.00in /  0mm
08:25 55.8 °F /  13.2 °C 53.8 °F /  12.1 °C 29.98in /  1015.1hPa SW 1.0mph /  1.6km/h 2.0mph /  3.2km/h 93% 0.00in /  0mm
08:30 56.3 °F /  13.5 °C 54.0 °F /  12.2 °C 29.99in /  1015.5hPa SW 2.0mph /  3.2km/h 3.0mph /  4.8km/h 92% 0.00in /  0mm
08:35 57.2 °F /  14 °C 54.9 °F /  12.7 °C 29.99in /  1015.5hPa SSW 2.0mph /  3.2km/h 3.0mph /  4.8km/h 92% 0.00in /  0mm
08:40 57.7 °F /  14.3 °C 54.2 °F /  12.3 °C 29.99in /  1015.5hPa SW 3.0mph /  4.8km/h 3.0mph /  4.8km/h 88% 0.00in /  0mm
08:45 58.0 °F /  14.4 °C 54.2 °F /  12.3 °C 29.99in /  1015.5hPa SW 2.0mph /  3.2km/h 3.0mph /  4.8km/h 87% 0.00in /  0mm
08:50 58.6 °F /  14.8 °C 54.4 °F /  12.4 °C 29.99in /  1015.5hPa SW 1.0mph /  1.6km/h 3.0mph /  4.8km/h 86% 0.00in /  0mm
08:55 58.9 °F /  14.9 °C 53.4 °F /  11.9 °C 29.99in /  1015.5hPa South 1.0mph /  1.6km/h 3.0mph /  4.8km/h 82% 0.00in /  0mm
09:00 59.6 °F /  15.3 °C 54.1 °F /  12.3 °C 29.99in /  1015.5hPa SSW 2.0mph /  3.2km/h 3.0mph /  4.8km/h 82% 0.00in /  0mm
09:05 60.0 °F /  15.6 °C 54.8 °F /  12.7 °C 30.00in /  1015.8hPa SW 1.0mph /  1.6km/h 2.0mph /  3.2km/h 83% 0.00in /  0mm
09:10 60.6 °F /  15.9 °C 55.4 °F /  13 °C 30.00in /  1015.8hPa SW 1.0mph /  1.6km/h 2.0mph /  3.2km/h 83% 0.00in /  0mm
09:15 61.1 °F /  16.2 °C 54.5 °F /  12.5 °C 30.00in /  1015.8hPa Calm   2.0mph /  3.2km/h 79% 0.00in /  0mm
09:20 61.7 °F /  16.5 °C 54.4 °F /  12.4 °C 30.00in /  1015.8hPa Calm   2.0mph /  3.2km/h 77% 0.00in /  0mm
09:25 62.1 °F /  16.7 °C 54.8 °F /  12.7 °C 30.00in /  1015.8hPa West 2.0mph /  3.2km/h 3.0mph /  4.8km/h 77% 0.00in /  0mm
09:30 62.0 °F /  16.7 °C 54.0 °F /  12.2 °C 30.01in /  1016.1hPa SSW 1.0mph /  1.6km/h 4.0mph /  6.4km/h 75% 0.00in /  0mm
09:35 62.3 °F /  16.8 °C 53.9 °F /  12.2 °C 30.01in /  1016.1hPa SSW 2.0mph /  3.2km/h 4.0mph /  6.4km/h 74% 0.00in /  0mm
09:40 63.2 °F /  17.3 °C 53.3 °F /  11.8 °C 30.01in /  1016.1hPa SSW 2.0mph /  3.2km/h 3.0mph /  4.8km/h 70% 0.00in /  0mm
09:45 63.2 °F /  17.3 °C 52.1 °F /  11.2 °C 30.00in /  1015.8hPa SSW 4.0mph /  6.4km/h 4.0mph /  6.4km/h 67% 0.00in /  0mm
09:50 63.2 °F /  17.3 °C 50.4 °F /  10.2 °C 30.01in /  1016.1hPa South 2.0mph /  3.2km/h 3.0mph /  4.8km/h 63% 0.00in /  0mm
09:55 63.4 °F /  17.4 °C 50.6 °F /  10.3 °C 30.01in /  1016.1hPa SSW 1.0mph /  1.6km/h 2.0mph /  3.2km/h 63% 0.00in /  0mm
10:00 63.5 °F /  17.5 °C 53.5 °F /  11.9 °C 30.00in /  1015.8hPa SW 2.0mph /  3.2km/h 3.0mph /  4.8km/h 70% 0.00in /  0mm
10:05 63.3 °F /  17.4 °C 52.6 °F /  11.4 °C 30.00in /  1015.8hPa Calm   2.0mph /  3.2km/h 68% 0.00in /  0mm
10:10 63.6 °F /  17.6 °C 52.0 °F /  11.1 °C 30.00in /  1015.8hPa WSW 2.0mph /  3.2km/h 2.0mph /  3.2km/h 66% 0.00in /  0mm
10:15 63.9 °F /  17.7 °C 53.1 °F /  11.7 °C 30.00in /  1015.8hPa SE 2.0mph /  3.2km/h 2.0mph /  3.2km/h 68% 0.00in /  0mm
10:20 64.5 °F /  18.1 °C 52.9 °F /  11.6 °C 30.00in /  1015.8hPa SSW 1.0mph /  1.6km/h 2.0mph /  3.2km/h 66% 0.00in /  0mm
10:25 64.7 °F /  18.2 °C 53.1 °F /  11.7 °C 30.01in /  1016.1hPa Calm   4.0mph /  6.4km/h 66% 0.00in /  0mm
10:30 65.1 °F /  18.4 °C 51.3 °F /  10.7 °C 30.00in /  1015.8hPa SE 2.0mph /  3.2km/h 3.0mph /  4.8km/h 61% 0.00in /  0mm
10:35 65.6 °F /  18.7 °C 51.4 °F /  10.8 °C 30.00in /  1015.8hPa SSW 2.0mph /  3.2km/h 4.0mph /  6.4km/h 60% 0.00in /  0mm
10:40 65.8 °F /  18.8 °C 50.6 °F /  10.3 °C 30.00in /  1015.8hPa NNE 1.0mph /  1.6km/h 4.0mph /  6.4km/h 58% 0.00in /  0mm
10:46 65.9 °F /  18.8 °C 50.7 °F /  10.4 °C 30.00in /  1015.8hPa Calm   3.0mph /  4.8km/h 58% 0.00in /  0mm
10:51 66.1 °F /  18.9 °C 50.9 °F /  10.5 °C 30.00in /  1015.8hPa SW 1.0mph /  1.6km/h 2.0mph /  3.2km/h 58% 0.00in /  0mm
10:56 66.6 °F /  19.2 °C 51.8 °F /  11 °C 30.00in /  1015.8hPa ENE 1.0mph /  1.6km/h 4.0mph /  6.4km/h 59% 0.00in /  0mm
11:01 66.6 °F /  19.2 °C 50.0 °F /  10 °C 30.00in /  1015.8hPa SW 2.0mph /  3.2km/h 5.0mph /  8km/h 55% 0.00in /  0mm
11:06 66.5 °F /  19.2 °C 51.3 °F /  10.7 °C 30.00in /  1015.8hPa SW 4.0mph /  6.4km/h 4.0mph /  6.4km/h 58% 0.00in /  0mm
11:11 66.6 °F /  19.2 °C 50.9 °F /  10.5 °C 30.00in /  1015.8hPa SW 2.0mph /  3.2km/h 5.0mph /  8km/h 57% 0.00in /  0mm
11:16 66.9 °F /  19.4 °C 49.2 °F /  9.6 °C 30.00in /  1015.8hPa West 4.0mph /  6.4km/h 6.0mph /  9.7km/h 53% 0.00in /  0mm
11:21 66.7 °F /  19.3 °C 51.5 °F /  10.8 °C 30.00in /  1015.8hPa WNW 1.0mph /  1.6km/h 9.0mph /  14.5km/h 58% 0.00in /  0mm
11:26 66.9 °F /  19.4 °C 52.6 °F /  11.4 °C 30.00in /  1015.8hPa WSW 3.0mph /  4.8km/h 7.0mph /  11.3km/h 60% 0.00in /  0mm
11:31 67.3 °F /  19.6 °C 53.8 °F /  12.1 °C 30.00in /  1015.8hPa SW 6.0mph /  9.7km/h 7.0mph /  11.3km/h 62% 0.00in /  0mm
11:36 67.6 °F /  19.8 °C 53.7 °F /  12.1 °C 30.00in /  1015.8hPa SSE 2.0mph /  3.2km/h 6.0mph /  9.7km/h 61% 0.00in /  0mm
11:41 68.1 °F /  20.1 °C 54.6 °F /  12.6 °C 30.00in /  1015.8hPa WSW 6.0mph /  9.7km/h 6.0mph /  9.7km/h 62% 0.00in /  0mm
11:46 68.0 °F /  20 °C 54.1 °F /  12.3 °C 30.00in /  1015.8hPa WSW 4.0mph /  6.4km/h 9.0mph /  14.5km/h 61% 0.00in /  0mm
11:51 67.4 °F /  19.7 °C 53.5 °F /  11.9 °C 30.00in /  1015.8hPa South 2.0mph /  3.2km/h 10.0mph /  16.1km/h 61% 0.00in /  0mm
11:56 67.6 °F /  19.8 °C 53.7 °F /  12.1 °C 30.00in /  1015.8hPa SW 5.0mph /  8km/h 9.0mph /  14.5km/h 61% 0.00in /  0mm
12:01 67.4 °F /  19.7 °C 53.5 °F /  11.9 °C 30.00in /  1015.8hPa WNW 3.0mph /  4.8km/h 6.0mph /  9.7km/h 61% 0.00in /  0mm
12:06 68.0 °F /  20 °C 54.1 °F /  12.3 °C 30.00in /  1015.8hPa SW 6.0mph /  9.7km/h 9.0mph /  14.5km/h 61% 0.00in /  0mm
12:11 68.3 °F /  20.2 °C 54.3 °F /  12.4 °C 30.00in /  1015.8hPa West 3.0mph /  4.8km/h 7.0mph /  11.3km/h 61% 0.00in /  0mm
12:16 68.2 °F /  20.1 °C 53.3 °F /  11.8 °C 30.00in /  1015.8hPa SW 4.0mph /  6.4km/h 8.0mph /  12.9km/h 59% 0.00in /  0mm
12:21 68.7 °F /  20.4 °C 54.3 °F /  12.4 °C 29.99in /  1015.5hPa SSW 4.0mph /  6.4km/h 6.0mph /  9.7km/h 60% 0.00in /  0mm
12:26 69.1 °F /  20.6 °C 54.2 °F /  12.3 °C 29.99in /  1015.5hPa SW 9.0mph /  14.5km/h 9.0mph /  14.5km/h 59% 0.00in /  0mm
12:31 68.8 °F /  20.4 °C 54.8 °F /  12.7 °C 29.99in /  1015.5hPa SSE 1.0mph /  1.6km/h 3.0mph /  4.8km/h 61% 0.00in /  0mm
12:36 69.1 °F /  20.6 °C 55.1 °F /  12.8 °C 29.99in /  1015.5hPa SSE 3.0mph /  4.8km/h 10.0mph /  16.1km/h 61% 0.00in /  0mm
12:41 68.7 °F /  20.4 °C 55.6 °F /  13.1 °C 29.99in /  1015.5hPa SW 4.0mph /  6.4km/h 8.0mph /  12.9km/h 63% 0.00in /  0mm
12:46 68.9 °F /  20.5 °C 55.4 °F /  13 °C 29.99in /  1015.5hPa WSW 1.0mph /  1.6km/h 7.0mph /  11.3km/h 62% 0.00in /  0mm
12:51 68.9 °F /  20.5 °C 53.5 °F /  11.9 °C 29.99in /  1015.5hPa WSW 10.0mph /  16.1km/h 10.0mph /  16.1km/h 58% 0.00in /  0mm
12:56 68.9 °F /  20.5 °C 53.5 °F /  11.9 °C 29.99in /  1015.5hPa WNW 3.0mph /  4.8km/h 12.0mph /  19.3km/h 58% 0.00in /  0mm
13:02 69.7 °F /  20.9 °C 53.8 °F /  12.1 °C 29.99in /  1015.5hPa WNW 6.0mph /  9.7km/h 11.0mph /  17.7km/h 57% 0.00in /  0mm
13:07 69.3 °F /  20.7 °C 53.9 °F /  12.2 °C 29.99in /  1015.5hPa WSW 5.0mph /  8km/h 10.0mph /  16.1km/h 58% 0.00in /  0mm
13:12 69.6 °F /  20.9 °C 54.2 °F /  12.3 °C 29.99in /  1015.5hPa SSW 6.0mph /  9.7km/h 19.0mph /  30.6km/h 58% 0.00in /  0mm
13:17 69.1 °F /  20.6 °C 54.2 °F /  12.3 °C 29.99in /  1015.5hPa SW 8.0mph /  12.9km/h 9.0mph /  14.5km/h 59% 0.00in /  0mm
13:22 69.5 °F /  20.8 °C 55.0 °F /  12.8 °C 29.99in /  1015.5hPa SW 4.0mph /  6.4km/h 10.0mph /  16.1km/h 60% 0.00in /  0mm
13:27 70.2 °F /  21.2 °C 56.6 °F /  13.7 °C 29.99in /  1015.5hPa SSW 5.0mph /  8km/h 5.0mph /  8km/h 62% 0.00in /  0mm
13:32 70.0 °F /  21.1 °C 54.6 °F /  12.6 °C 29.98in /  1015.1hPa SW 12.0mph /  19.3km/h 12.0mph /  19.3km/h 58% 0.00in /  0mm
13:37 70.1 °F /  21.2 °C 54.7 °F /  12.6 °C 29.98in /  1015.1hPa WNW 5.0mph /  8km/h 8.0mph /  12.9km/h 58% 0.00in /  0mm
13:42 70.1 °F /  21.2 °C 55.1 °F /  12.8 °C 29.98in /  1015.1hPa West 5.0mph /  8km/h 7.0mph /  11.3km/h 59% 0.00in /  0mm
13:47 70.3 °F /  21.3 °C 55.8 °F /  13.2 °C 29.97in /  1014.8hPa SW 10.0mph /  16.1km/h 10.0mph /  16.1km/h 60% 0.00in /  0mm
13:52 71.1 °F /  21.7 °C 55.1 °F /  12.8 °C 29.97in /  1014.8hPa West 5.0mph /  8km/h 11.0mph /  17.7km/h 57% 0.00in /  0mm
13:57 71.0 °F /  21.7 °C 55.0 °F /  12.8 °C 29.97in /  1014.8hPa WNW 6.0mph /  9.7km/h 13.0mph /  20.9km/h 57% 0.00in /  0mm
14:02 70.5 °F /  21.4 °C 54.5 °F /  12.5 °C 29.97in /  1014.8hPa West 4.0mph /  6.4km/h 9.0mph /  14.5km/h 57% 0.00in /  0mm
14:07 70.8 °F /  21.6 °C 55.3 °F /  12.9 °C 29.97in /  1014.8hPa West 6.0mph /  9.7km/h 9.0mph /  14.5km/h 58% 0.00in /  0mm
14:12 71.1 °F /  21.7 °C 56.1 °F /  13.4 °C 29.96in /  1014.4hPa SW 9.0mph /  14.5km/h 9.0mph /  14.5km/h 59% 0.00in /  0mm
14:17 71.6 °F /  22 °C 55.1 °F /  12.8 °C 29.96in /  1014.4hPa WSW 6.0mph /  9.7km/h 7.0mph /  11.3km/h 56% 0.00in /  0mm
14:22 71.7 °F /  22.1 °C 56.2 °F /  13.4 °C 29.95in /  1014.1hPa WNW 4.0mph /  6.4km/h 10.0mph /  16.1km/h 58% 0.00in /  0mm
14:27 71.8 °F /  22.1 °C 55.3 °F /  12.9 °C 29.95in /  1014.1hPa SSW 5.0mph /  8km/h 11.0mph /  17.7km/h 56% 0.00in /  0mm
14:32 71.4 °F /  21.9 °C 54.9 °F /  12.7 °C 29.95in /  1014.1hPa SSE 6.0mph /  9.7km/h 10.0mph /  16.1km/h 56% 0.00in /  0mm
14:37 71.8 °F /  22.1 °C 54.8 °F /  12.7 °C 29.95in /  1014.1hPa WNW 4.0mph /  6.4km/h 11.0mph /  17.7km/h 55% 0.00in /  0mm
14:42 72.1 °F /  22.3 °C 55.1 °F /  12.8 °C 29.94in /  1013.8hPa WNW 5.0mph /  8km/h 9.0mph /  14.5km/h 55% 0.00in /  0mm
14:47 72.4 °F /  22.4 °C 55.8 °F /  13.2 °C 29.94in /  1013.8hPa NW 6.0mph /  9.7km/h 11.0mph /  17.7km/h 56% 0.00in /  0mm
14:52 72.6 °F /  22.6 °C 54.5 °F /  12.5 °C 29.94in /  1013.8hPa WNW 6.0mph /  9.7km/h 12.0mph /  19.3km/h 53% 0.00in /  0mm
14:57 72.5 °F /  22.5 °C 54.9 °F /  12.7 °C 29.94in /  1013.8hPa West 3.0mph /  4.8km/h 9.0mph /  14.5km/h 54% 0.00in /  0mm
15:02 72.7 °F /  22.6 °C 56.1 °F /  13.4 °C 29.94in /  1013.8hPa WSW 7.0mph /  11.3km/h 11.0mph /  17.7km/h 56% 0.00in /  0mm
15:07 73.0 °F /  22.8 °C 58.3 °F /  14.6 °C 29.94in /  1013.8hPa West 6.0mph /  9.7km/h 9.0mph /  14.5km/h 60% 0.00in /  0mm
15:12 73.1 °F /  22.8 °C 56.5 °F /  13.6 °C 29.93in /  1013.4hPa SW 6.0mph /  9.7km/h 13.0mph /  20.9km/h 56% 0.00in /  0mm
15:17 73.2 °F /  22.9 °C 58.0 °F /  14.4 °C 29.93in /  1013.4hPa WSW 7.0mph /  11.3km/h 8.0mph /  12.9km/h 59% 0.00in /  0mm
15:22 73.3 °F /  22.9 °C 55.7 °F /  13.2 °C 29.93in /  1013.4hPa West 5.0mph /  8km/h 11.0mph /  17.7km/h 54% 0.00in /  0mm
15:27 73.7 °F /  23.2 °C 57.0 °F /  13.9 °C 29.93in /  1013.4hPa WSW 10.0mph /  16.1km/h 10.0mph /  16.1km/h 56% 0.00in /  0mm
15:32 73.6 °F /  23.1 °C 55.4 °F /  13 °C 29.93in /  1013.4hPa SW 9.0mph /  14.5km/h 11.0mph /  17.7km/h 53% 0.00in /  0mm
15:37 73.3 °F /  22.9 °C 55.2 °F /  12.9 °C 29.93in /  1013.4hPa WSW 5.0mph /  8km/h 10.0mph /  16.1km/h 53% 0.00in /  0mm
15:42 72.8 °F /  22.7 °C 55.7 °F /  13.2 °C 29.92in /  1013.1hPa SSW 3.0mph /  4.8km/h 5.0mph /  8km/h 55% 0.00in /  0mm
15:47 73.0 °F /  22.8 °C 55.9 °F /  13.3 °C 29.92in /  1013.1hPa SW 2.0mph /  3.2km/h 7.0mph /  11.3km/h 55% 0.00in /  0mm
15:52 73.3 °F /  22.9 °C 56.2 °F /  13.4 °C 29.92in /  1013.1hPa West 6.0mph /  9.7km/h 12.0mph /  19.3km/h 55% 0.00in /  0mm
15:57 73.8 °F /  23.2 °C 56.1 °F /  13.4 °C 29.92in /  1013.1hPa WNW 5.0mph /  8km/h 10.0mph /  16.1km/h 54% 0.00in /  0mm
16:03 73.5 °F /  23.1 °C 55.9 °F /  13.3 °C 29.92in /  1013.1hPa West 8.0mph /  12.9km/h 11.0mph /  17.7km/h 54% 0.00in /  0mm
16:08 73.5 °F /  23.1 °C 55.9 °F /  13.3 °C 29.91in /  1012.8hPa WSW 4.0mph /  6.4km/h 8.0mph /  12.9km/h 54% 0.00in /  0mm
16:13 74.1 °F /  23.4 °C 56.4 °F /  13.6 °C 29.91in /  1012.8hPa WNW 3.0mph /  4.8km/h 11.0mph /  17.7km/h 54% 0.00in /  0mm
16:18 74.1 °F /  23.4 °C 55.9 °F /  13.3 °C 29.91in /  1012.8hPa WSW 5.0mph /  8km/h 13.0mph /  20.9km/h 53% 0.00in /  0mm
16:23 74.4 °F /  23.6 °C 57.2 °F /  14 °C 29.91in /  1012.8hPa NW 3.0mph /  4.8km/h 11.0mph /  17.7km/h 55% 0.00in /  0mm
16:28 74.4 °F /  23.6 °C 56.7 °F /  13.7 °C 29.91in /  1012.8hPa NW 6.0mph /  9.7km/h 9.0mph /  14.5km/h 54% 0.00in /  0mm
16:33 74.2 °F /  23.4 °C 57.0 °F /  13.9 °C 29.91in /  1012.8hPa West 6.0mph /  9.7km/h 10.0mph /  16.1km/h 55% 0.00in /  0mm
16:38 74.2 °F /  23.4 °C 57.0 °F /  13.9 °C 29.91in /  1012.8hPa SW 6.0mph /  9.7km/h 10.0mph /  16.1km/h 55% 0.00in /  0mm
16:43 74.3 °F /  23.5 °C 58.1 °F /  14.5 °C 29.91in /  1012.8hPa WSW 6.0mph /  9.7km/h 10.0mph /  16.1km/h 57% 0.00in /  0mm
16:48 74.0 °F /  23.3 °C 56.3 °F /  13.5 °C 29.91in /  1012.8hPa WSW 5.0mph /  8km/h 12.0mph /  19.3km/h 54% 0.00in /  0mm
16:53 73.4 °F /  23 °C 57.3 °F /  14.1 °C 29.91in /  1012.8hPa SSW 5.0mph /  8km/h 5.0mph /  8km/h 57% 0.00in /  0mm
16:58 73.5 °F /  23.1 °C 57.8 °F /  14.3 °C 29.91in /  1012.8hPa SSW 4.0mph /  6.4km/h 9.0mph /  14.5km/h 58% 0.00in /  0mm
17:03 73.8 °F /  23.2 °C 57.1 °F /  13.9 °C 29.91in /  1012.8hPa SSW 4.0mph /  6.4km/h 7.0mph /  11.3km/h 56% 0.00in /  0mm
17:08 74.1 °F /  23.4 °C 57.9 °F /  14.4 °C 29.90in /  1012.4hPa SW 7.0mph /  11.3km/h 8.0mph /  12.9km/h 57% 0.00in /  0mm
17:13 74.5 °F /  23.6 °C 59.2 °F /  15.1 °C 29.90in /  1012.4hPa WSW 4.0mph /  6.4km/h 11.0mph /  17.7km/h 59% 0.00in /  0mm
17:18 74.5 °F /  23.6 °C 58.8 °F /  14.9 °C 29.90in /  1012.4hPa SSW 5.0mph /  8km/h 10.0mph /  16.1km/h 58% 0.00in /  0mm
17:23 73.7 °F /  23.2 °C 58.0 °F /  14.4 °C 29.90in /  1012.4hPa SW 6.0mph /  9.7km/h 6.0mph /  9.7km/h 58% 0.00in /  0mm
17:28 73.3 °F /  22.9 °C 58.1 °F /  14.5 °C 29.90in /  1012.4hPa West 3.0mph /  4.8km/h 4.0mph /  6.4km/h 59% 0.00in /  0mm
17:33 73.4 °F /  23 °C 59.6 °F /  15.3 °C 29.89in /  1012.1hPa SW 5.0mph /  8km/h 8.0mph /  12.9km/h 62% 0.00in /  0mm
17:38 74.5 °F /  23.6 °C 59.7 °F /  15.4 °C 29.89in /  1012.1hPa South 5.0mph /  8km/h 11.0mph /  17.7km/h 60% 0.00in /  0mm
17:43 74.5 °F /  23.6 °C 58.8 °F /  14.9 °C 29.89in /  1012.1hPa SW 9.0mph /  14.5km/h 10.0mph /  16.1km/h 58% 0.00in /  0mm
17:48 74.7 °F /  23.7 °C 59.4 °F /  15.2 °C 29.89in /  1012.1hPa WSW 4.0mph /  6.4km/h 9.0mph /  14.5km/h 59% 0.00in /  0mm
17:53 74.9 °F /  23.8 °C 58.7 °F /  14.8 °C 29.89in /  1012.1hPa SW 4.0mph /  6.4km/h 10.0mph /  16.1km/h 57% 0.00in /  0mm
17:58 74.7 °F /  23.7 °C 58.5 °F /  14.7 °C 29.89in /  1012.1hPa SW 4.0mph /  6.4km/h 6.0mph /  9.7km/h 57% 0.00in /  0mm
18:03 74.0 °F /  23.3 °C 59.2 °F /  15.1 °C 29.89in /  1012.1hPa SW 1.0mph /  1.6km/h 7.0mph /  11.3km/h 60% 0.00in /  0mm
18:08 73.6 °F /  23.1 °C 57.9 °F /  14.4 °C 29.89in /  1012.1hPa West 4.0mph /  6.4km/h 8.0mph /  12.9km/h 58% 0.00in /  0mm
18:13 74.0 °F /  23.3 °C 58.3 °F /  14.6 °C 29.89in /  1012.1hPa SW 9.0mph /  14.5km/h 9.0mph /  14.5km/h 58% 0.00in /  0mm
18:18 74.7 °F /  23.7 °C 59.4 °F /  15.2 °C 29.89in /  1012.1hPa West 6.0mph /  9.7km/h 7.0mph /  11.3km/h 59% 0.00in /  0mm
18:23 74.4 °F /  23.6 °C 57.2 °F /  14 °C 29.89in /  1012.1hPa SSW 10.0mph /  16.1km/h 11.0mph /  17.7km/h 55% 0.00in /  0mm
18:28 74.1 °F /  23.4 °C 57.9 °F /  14.4 °C 29.88in /  1011.7hPa SW 10.0mph /  16.1km/h 10.0mph /  16.1km/h 57% 0.00in /  0mm
18:33 73.9 °F /  23.3 °C 58.7 °F /  14.8 °C 29.88in /  1011.7hPa SSW 4.0mph /  6.4km/h 9.0mph /  14.5km/h 59% 0.00in /  0mm
18:38 73.6 °F /  23.1 °C 58.9 °F /  14.9 °C 29.88in /  1011.7hPa SW 4.0mph /  6.4km/h 7.0mph /  11.3km/h 60% 0.00in /  0mm
18:43 73.3 °F /  22.9 °C 59.0 °F /  15 °C 29.88in /  1011.7hPa SW 4.0mph /  6.4km/h 7.0mph /  11.3km/h 61% 0.00in /  0mm
18:48 73.1 °F /  22.8 °C 58.9 °F /  14.9 °C 29.88in /  1011.7hPa SW 3.0mph /  4.8km/h 6.0mph /  9.7km/h 61% 0.00in /  0mm
18:53 73.1 °F /  22.8 °C 59.3 °F /  15.2 °C 29.88in /  1011.7hPa SW 5.0mph /  8km/h 7.0mph /  11.3km/h 62% 0.00in /  0mm
18:58 73.4 °F /  23 °C 60.0 °F /  15.6 °C 29.88in /  1011.7hPa WSW 5.0mph /  8km/h 6.0mph /  9.7km/h 63% 0.00in /  0mm
19:03 74.1 °F /  23.4 °C 60.3 °F /  15.7 °C 29.88in /  1011.7hPa SW 3.0mph /  4.8km/h 6.0mph /  9.7km/h 62% 0.00in /  0mm
19:09 74.3 °F /  23.5 °C 59.1 °F /  15.1 °C 29.88in /  1011.7hPa WSW 4.0mph /  6.4km/h 9.0mph /  14.5km/h 59% 0.00in /  0mm
19:14 74.3 °F /  23.5 °C 59.1 °F /  15.1 °C 29.87in /  1011.4hPa WSW 7.0mph /  11.3km/h 9.0mph /  14.5km/h 59% 0.00in /  0mm
19:19 74.2 °F /  23.4 °C 59.0 °F /  15 °C 29.88in /  1011.7hPa SW 7.0mph /  11.3km/h 11.0mph /  17.7km/h 59% 0.00in /  0mm
19:24 74.1 °F /  23.4 °C 59.8 °F /  15.4 °C 29.88in /  1011.7hPa WSW 5.0mph /  8km/h 7.0mph /  11.3km/h 61% 0.00in /  0mm
19:29 74.0 °F /  23.3 °C 59.2 °F /  15.1 °C 29.88in /  1011.7hPa SW 5.0mph /  8km/h 11.0mph /  17.7km/h 60% 0.00in /  0mm
19:34 73.7 °F /  23.2 °C 59.4 °F /  15.2 °C 29.88in /  1011.7hPa SW 7.0mph /  11.3km/h 10.0mph /  16.1km/h 61% 0.00in /  0mm
19:39 73.5 °F /  23.1 °C 59.2 °F /  15.1 °C 29.88in /  1011.7hPa SW 10.0mph /  16.1km/h 10.0mph /  16.1km/h 61% 0.00in /  0mm
19:44 73.4 °F /  23 °C 59.2 °F /  15.1 °C 29.88in /  1011.7hPa SW 6.0mph /  9.7km/h 8.0mph /  12.9km/h 61% 0.00in /  0mm
19:49 73.2 °F /  22.9 °C 59.0 °F /  15 °C 29.88in /  1011.7hPa SSW 6.0mph /  9.7km/h 8.0mph /  12.9km/h 61% 0.00in /  0mm
19:54 73.1 °F /  22.8 °C 59.3 °F /  15.2 °C 29.88in /  1011.7hPa SW 5.0mph /  8km/h 7.0mph /  11.3km/h 62% 0.00in /  0mm
19:59 73.0 °F /  22.8 °C 59.7 °F /  15.4 °C 29.88in /  1011.7hPa SW 3.0mph /  4.8km/h 5.0mph /  8km/h 63% 0.00in /  0mm
20:04 72.9 °F /  22.7 °C 60.0 °F /  15.6 °C 29.88in /  1011.7hPa SW 6.0mph /  9.7km/h 6.0mph /  9.7km/h 64% 0.00in /  0mm
20:09 72.7 °F /  22.6 °C 59.8 °F /  15.4 °C 29.88in /  1011.7hPa SW 3.0mph /  4.8km/h 6.0mph /  9.7km/h 64% 0.00in /  0mm
20:14 72.5 °F /  22.5 °C 59.6 °F /  15.3 °C 29.88in /  1011.7hPa SW 4.0mph /  6.4km/h 7.0mph /  11.3km/h 64% 0.00in /  0mm
20:19 72.3 °F /  22.4 °C 59.9 °F /  15.5 °C 29.88in /  1011.7hPa SW 6.0mph /  9.7km/h 7.0mph /  11.3km/h 65% 0.00in /  0mm
20:24 71.9 °F /  22.2 °C 59.5 °F /  15.3 °C 29.88in /  1011.7hPa SW 5.0mph /  8km/h 5.0mph /  8km/h 65% 0.00in /  0mm
20:29 71.6 °F /  22 °C 59.7 °F /  15.4 °C 29.88in /  1011.7hPa SW 5.0mph /  8km/h 6.0mph /  9.7km/h 66% 0.00in /  0mm
20:34 71.2 °F /  21.8 °C 59.3 °F /  15.2 °C 29.88in /  1011.7hPa SSW 3.0mph /  4.8km/h 5.0mph /  8km/h 66% 0.00in /  0mm
20:39 70.8 °F /  21.6 °C 59.3 °F /  15.2 °C 29.88in /  1011.7hPa SSW 3.0mph /  4.8km/h 5.0mph /  8km/h 67% 0.00in /  0mm
20:44 70.3 °F /  21.3 °C 59.2 °F /  15.1 °C 29.88in /  1011.7hPa SSW 3.0mph /  4.8km/h 4.0mph /  6.4km/h 68% 0.00in /  0mm
20:49 69.7 °F /  20.9 °C 59.1 °F /  15.1 °C 29.88in /  1011.7hPa SW 2.0mph /  3.2km/h 4.0mph /  6.4km/h 69% 0.00in /  0mm
20:54 69.2 °F /  20.7 °C 59.0 °F /  15 °C 29.89in /  1012.1hPa SW 2.0mph /  3.2km/h 4.0mph /  6.4km/h 70% 0.00in /  0mm
20:59 68.8 °F /  20.4 °C 59.0 °F /  15 °C 29.88in /  1011.7hPa SSW 3.0mph /  4.8km/h 3.0mph /  4.8km/h 71% 0.00in /  0mm
21:04 68.3 °F /  20.2 °C 58.9 °F /  14.9 °C 29.89in /  1012.1hPa SSW 2.0mph /  3.2km/h 3.0mph /  4.8km/h 72% 0.00in /  0mm
21:09 67.8 °F /  19.9 °C 58.8 °F /  14.9 °C 29.89in /  1012.1hPa SSW 1.0mph /  1.6km/h 2.0mph /  3.2km/h 73% 0.00in /  0mm
21:14 67.6 °F /  19.8 °C 58.7 °F /  14.8 °C 29.89in /  1012.1hPa Calm   2.0mph /  3.2km/h 73% 0.00in /  0mm
21:19 67.3 °F /  19.6 °C 58.7 °F /  14.8 °C 29.89in /  1012.1hPa South 2.0mph /  3.2km/h 2.0mph /  3.2km/h 74% 0.00in /  0mm
21:24 67.2 °F /  19.6 °C 58.6 °F /  14.8 °C 29.89in /  1012.1hPa Calm   2.0mph /  3.2km/h 74% 0.00in /  0mm
21:29 67.0 °F /  19.4 °C 58.5 °F /  14.7 °C 29.89in /  1012.1hPa Calm   1.0mph /  1.6km/h 74% 0.00in /  0mm
21:34 66.6 °F /  19.2 °C 58.4 °F /  14.7 °C 29.89in /  1012.1hPa Calm   1.0mph /  1.6km/h 75% 0.00in /  0mm
21:39 66.3 °F /  19.1 °C 58.5 °F /  14.7 °C 29.89in /  1012.1hPa SSW 1.0mph /  1.6km/h 2.0mph /  3.2km/h 76% 0.00in /  0mm
21:45 66.1 °F /  18.9 °C 58.3 °F /  14.6 °C 29.89in /  1012.1hPa South 1.0mph /  1.6km/h 2.0mph /  3.2km/h 76% 0.00in /  0mm
21:50 65.9 °F /  18.8 °C 58.5 °F /  14.7 °C 29.89in /  1012.1hPa South 1.0mph /  1.6km/h 1.0mph /  1.6km/h 77% 0.00in /  0mm
21:55 65.8 °F /  18.8 °C 58.4 °F /  14.7 °C 29.89in /  1012.1hPa Calm   2.0mph /  3.2km/h 77% 0.00in /  0mm
22:00 65.6 °F /  18.7 °C 58.2 °F /  14.6 °C 29.90in /  1012.4hPa SSW 1.0mph /  1.6km/h 1.0mph /  1.6km/h 77% 0.00in /  0mm
22:05 65.4 °F /  18.6 °C 58.4 °F /  14.7 °C 29.90in /  1012.4hPa Calm   1.0mph /  1.6km/h 78% 0.00in /  0mm
22:10 65.1 °F /  18.4 °C 58.4 °F /  14.7 °C 29.90in /  1012.4hPa WSW 1.0mph /  1.6km/h 1.0mph /  1.6km/h 79% 0.00in /  0mm
22:15 65.0 °F /  18.3 °C 58.3 °F /  14.6 °C 29.90in /  1012.4hPa Calm   1.0mph /  1.6km/h 79% 0.00in /  0mm
22:20 64.8 °F /  18.2 °C 58.5 °F /  14.7 °C 29.91in /  1012.8hPa Calm   1.0mph /  1.6km/h 80% 0.00in /  0mm
22:25 64.5 °F /  18.1 °C 58.2 °F /  14.6 °C 29.91in /  1012.8hPa Calm     80% 0.00in /  0mm
22:30 64.2 °F /  17.9 °C 57.9 °F /  14.4 °C 29.91in /  1012.8hPa Calm     80% 0.00in /  0mm
22:35 63.7 °F /  17.6 °C 57.8 °F /  14.3 °C 29.91in /  1012.8hPa Calm     81% 0.00in /  0mm
22:40 63.0 °F /  17.2 °C 57.4 °F /  14.1 °C 29.91in /  1012.8hPa Calm     82% 0.00in /  0mm
22:45 62.4 °F /  16.9 °C 57.2 °F /  14 °C 29.91in /  1012.8hPa Calm     83% 0.00in /  0mm
22:50 61.8 °F /  16.6 °C 56.9 °F /  13.8 °C 29.92in /  1013.1hPa Calm     84% 0.00in /  0mm
22:55 61.5 °F /  16.4 °C 57.3 °F /  14.1 °C 29.92in /  1013.1hPa Calm     86% 0.00in /  0mm
23:00 61.4 °F /  16.3 °C 57.5 °F /  14.2 °C 29.92in /  1013.1hPa Calm     87% 0.00in /  0mm
23:05 61.2 °F /  16.2 °C 57.3 °F /  14.1 °C 29.92in /  1013.1hPa Calm     87% 0.00in /  0mm
23:10 61.5 °F /  16.4 °C 57.6 °F /  14.2 °C 29.92in /  1013.1hPa Calm     87% 0.00in /  0mm
23:15 61.6 °F /  16.4 °C 57.4 °F /  14.1 °C 29.93in /  1013.4hPa Calm     86% 0.00in /  0mm
23:20 61.3 °F /  16.3 °C 57.4 °F /  14.1 °C 29.93in /  1013.4hPa Calm     87% 0.00in /  0mm
23:25 61.1 °F /  16.2 °C 57.5 °F /  14.2 °C 29.93in /  1013.4hPa Calm     88% 0.00in /  0mm
23:30 60.9 °F /  16.1 °C 57.3 °F /  14.1 °C 29.93in /  1013.4hPa Calm     88% 0.00in /  0mm
23:35 60.7 °F /  15.9 °C 57.4 °F /  14.1 °C 29.93in /  1013.4hPa Calm     89% 0.00in /  0mm
23:40 60.5 °F /  15.8 °C 57.2 °F /  14 °C 29.93in /  1013.4hPa Calm     89% 0.00in /  0mm
23:46 60.5 °F /  15.8 °C 57.6 °F /  14.2 °C 29.93in /  1013.4hPa Calm     90% 0.00in /  0mm
23:51 60.7 °F /  15.9 °C 57.4 °F /  14.1 °C 29.93in /  1013.4hPa Calm     89% 0.00in /  0mm
23:56 60.8 °F /  16 °C 57.5 °F /  14.2 °C 29.93in /  1013.4hPa Calm     89% 0.00in /  0mm
Compliments of Weather Underground